createdAt,value
2023-03-17T00:00:36.960Z,63.68
2023-03-17T00:01:36.137Z,63.63
2023-03-17T00:02:35.735Z,63.43
2023-03-17T00:03:35.883Z,63.34
2023-03-17T00:04:35.678Z,62.97
2023-03-17T00:05:36.130Z,63.66
2023-03-17T00:06:34.679Z,64.12
2023-03-17T00:07:34.626Z,64.37
2023-03-17T00:08:35.039Z,64.67
2023-03-17T00:09:34.992Z,65.10
2023-03-17T00:10:34.829Z,65.02
2023-03-17T00:11:35.600Z,65.09
2023-03-17T00:12:35.589Z,65.01
2023-03-17T00:13:40.191Z,64.88
2023-03-17T00:14:35.468Z,65.01
2023-03-17T00:15:43.431Z,65.26
2023-03-17T00:16:35.099Z,65.61
2023-03-17T00:17:34.840Z,65.93
2023-03-17T00:18:35.002Z,65.83
2023-03-17T00:19:34.584Z,65.70
2023-03-17T00:20:35.086Z,65.90
2023-03-17T00:21:34.600Z,65.99
2023-03-17T00:22:35.206Z,66.11
2023-03-17T00:23:34.974Z,66.34
2023-03-17T00:24:35.343Z,66.51
2023-03-17T00:25:35.124Z,66.71
2023-03-17T00:26:34.623Z,66.62
2023-03-17T00:27:35.501Z,66.61
2023-03-17T00:28:34.977Z,66.88
2023-03-17T00:29:34.018Z,67.06
2023-03-17T00:30:35.126Z,66.68
2023-03-17T00:31:35.010Z,66.52
2023-03-17T00:32:34.807Z,66.88
2023-03-17T00:33:35.226Z,66.94
2023-03-17T00:34:34.738Z,66.90
2023-03-17T00:35:35.110Z,67.23
2023-03-17T00:36:34.496Z,67.41
2023-03-17T00:37:34.834Z,67.38
2023-03-17T00:38:35.021Z,67.44
2023-03-17T00:39:34.461Z,67.44
2023-03-17T00:40:34.878Z,67.37
2023-03-17T00:41:34.896Z,67.53
2023-03-17T00:42:35.780Z,67.79
2023-03-17T00:43:34.989Z,67.79
2023-03-17T00:44:34.568Z,67.91
2023-03-17T00:45:35.613Z,67.96
2023-03-17T00:46:35.316Z,67.77
2023-03-17T00:47:34.932Z,67.83
2023-03-17T00:48:35.023Z,67.93
2023-03-17T00:49:34.669Z,68.02
2023-03-17T00:50:35.381Z,68.10
2023-03-17T00:51:34.733Z,68.04
2023-03-17T00:52:35.342Z,67.83
2023-03-17T00:53:34.565Z,67.39
2023-03-17T00:54:35.149Z,67.37
2023-03-17T00:55:34.527Z,66.96
2023-03-17T00:56:34.775Z,66.84
2023-03-17T00:57:35.029Z,66.40
2023-03-17T00:58:34.692Z,65.97
2023-03-17T00:59:35.326Z,65.83
2023-03-17T01:00:36.629Z,65.62
2023-03-17T01:01:39.258Z,65.95
2023-03-17T01:02:34.958Z,66.14
2023-03-17T01:03:35.190Z,66.34
2023-03-17T01:04:34.781Z,66.48
2023-03-17T01:05:35.233Z,66.65
2023-03-17T01:06:35.059Z,66.76
2023-03-17T01:07:34.944Z,66.90
2023-03-17T01:08:35.385Z,67.19
2023-03-17T01:09:35.144Z,67.33
2023-03-17T01:10:35.139Z,67.62
2023-03-17T01:11:34.882Z,67.62
2023-03-17T01:12:35.110Z,67.66
2023-03-17T01:13:34.228Z,67.63
2023-03-17T01:14:37.434Z,67.64
2023-03-17T01:15:35.697Z,67.61
2023-03-17T01:16:35.396Z,67.77
2023-03-17T01:17:35.326Z,68.06
2023-03-17T01:18:35.058Z,68.13
2023-03-17T01:20:35.420Z,68.26
2023-03-17T01:21:35.070Z,68.38
2023-03-17T01:22:34.362Z,68.45
2023-03-17T01:23:34.737Z,68.55
2023-03-17T01:24:34.939Z,68.62
2023-03-17T01:25:35.495Z,68.84
2023-03-17T01:26:36.281Z,68.96
2023-03-17T01:27:34.821Z,68.59
2023-03-17T01:28:34.829Z,68.19
2023-03-17T01:29:35.193Z,67.87
2023-03-17T01:30:35.485Z,67.83
2023-03-17T01:31:34.730Z,67.91
2023-03-17T01:32:35.299Z,68.02
2023-03-17T01:33:34.727Z,68.14
2023-03-17T01:34:35.021Z,68.22
2023-03-17T01:35:35.134Z,68.12
2023-03-17T01:36:35.033Z,68.15
2023-03-17T01:37:34.920Z,68.04
2023-03-17T01:38:35.349Z,68.05
2023-03-17T01:39:35.036Z,68.26
2023-03-17T01:40:35.118Z,68.57
2023-03-17T01:41:34.983Z,68.79
2023-03-17T01:42:34.741Z,68.80
2023-03-17T01:43:35.330Z,68.87
2023-03-17T01:44:34.932Z,68.98
2023-03-17T01:45:35.528Z,68.97
2023-03-17T01:46:35.104Z,69.05
2023-03-17T01:47:34.888Z,69.18
2023-03-17T01:48:35.570Z,69.22
2023-03-17T01:49:35.086Z,69.12
2023-03-17T01:50:34.692Z,69.06
2023-03-17T01:51:35.359Z,69.06
2023-03-17T01:52:34.995Z,69.34
2023-03-17T01:53:35.166Z,69.45
2023-03-17T01:54:34.777Z,69.48
2023-03-17T01:55:35.470Z,69.66
2023-03-17T01:56:34.670Z,69.62
2023-03-17T01:57:35.017Z,69.38
2023-03-17T01:58:34.974Z,69.19
2023-03-17T01:59:34.602Z,68.80
2023-03-17T02:00:36.747Z,68.65
2023-03-17T02:01:36.172Z,68.60
2023-03-17T02:02:35.281Z,68.45
2023-03-17T02:03:35.448Z,68.21
2023-03-17T02:04:35.509Z,68.07
2023-03-17T02:05:35.322Z,68.00
2023-03-17T02:06:37.008Z,67.82
2023-03-17T02:07:35.005Z,67.78
2023-03-17T02:08:34.904Z,67.86
2023-03-17T02:09:35.452Z,68.01
2023-03-17T02:10:35.279Z,68.25
2023-03-17T02:11:35.400Z,68.18
2023-03-17T02:12:35.422Z,68.16
2023-03-17T02:13:35.272Z,68.27
2023-03-17T02:14:34.918Z,68.18
2023-03-17T02:15:36.364Z,68.30
2023-03-17T02:16:34.833Z,68.40
2023-03-17T02:17:35.687Z,68.54
2023-03-17T02:18:35.418Z,68.40
2023-03-17T02:19:35.316Z,68.15
2023-03-17T02:20:35.571Z,68.02
2023-03-17T02:21:35.100Z,67.97
2023-03-17T02:22:34.969Z,68.05
2023-03-17T02:23:35.026Z,68.06
2023-03-17T02:24:34.634Z,68.01
2023-03-17T02:25:35.535Z,68.01
2023-03-17T02:26:34.502Z,68.15
2023-03-17T02:27:35.004Z,68.20
2023-03-17T02:28:34.864Z,68.17
2023-03-17T02:29:34.946Z,68.21
2023-03-17T02:30:35.653Z,68.25
2023-03-17T02:31:35.932Z,68.26
2023-03-17T02:32:35.555Z,68.33
2023-03-17T02:33:35.431Z,68.44
2023-03-17T02:34:35.379Z,68.70
2023-03-17T02:35:35.194Z,68.76
2023-03-17T02:36:35.225Z,68.77
2023-03-17T02:37:35.012Z,68.76
2023-03-17T02:38:34.685Z,68.79
2023-03-17T02:39:34.955Z,68.95
2023-03-17T02:40:35.326Z,68.94
2023-03-17T02:41:34.587Z,68.97
2023-03-17T02:42:35.170Z,68.80
2023-03-17T02:43:35.105Z,68.76
2023-03-17T02:44:34.858Z,68.69
2023-03-17T02:45:35.884Z,68.63
2023-03-17T02:46:43.356Z,68.57
2023-03-17T02:47:35.574Z,68.59
2023-03-17T02:48:35.370Z,69.02
2023-03-17T02:49:34.742Z,68.70
2023-03-17T02:50:34.751Z,68.43
2023-03-17T02:51:35.460Z,68.57
2023-03-17T02:52:34.513Z,68.70
2023-03-17T02:53:35.268Z,68.73
2023-03-17T02:54:35.404Z,68.78
2023-03-17T02:55:35.357Z,68.77
2023-03-17T02:56:35.022Z,68.72
2023-03-17T02:57:34.165Z,68.77
2023-03-17T02:58:35.155Z,68.86
2023-03-17T02:59:34.941Z,68.88
2023-03-17T03:00:50.443Z,69.01
2023-03-17T03:01:35.680Z,69.06
2023-03-17T03:02:35.619Z,69.24
2023-03-17T03:03:35.654Z,69.53
2023-03-17T03:04:35.364Z,69.62
2023-03-17T03:05:34.950Z,69.62
2023-03-17T03:06:35.577Z,69.66
2023-03-17T03:07:34.456Z,69.68
2023-03-17T03:08:34.719Z,69.62
2023-03-17T03:09:34.995Z,69.78
2023-03-17T03:10:35.184Z,69.84
2023-03-17T03:11:35.055Z,69.88
2023-03-17T03:12:42.439Z,69.77
2023-03-17T03:13:34.999Z,69.65
2023-03-17T03:14:56.900Z,69.57
2023-03-17T03:15:36.305Z,69.23
2023-03-17T03:16:35.443Z,69.29
2023-03-17T03:17:34.502Z,69.40
2023-03-17T03:18:34.689Z,69.19
2023-03-17T03:19:35.035Z,68.96
2023-03-17T03:20:34.350Z,69.12
2023-03-17T03:21:35.486Z,69.51
2023-03-17T03:22:34.807Z,69.66
2023-03-17T03:23:35.066Z,69.55
2023-03-17T03:24:34.435Z,69.52
2023-03-17T03:25:34.817Z,69.52
2023-03-17T03:26:35.608Z,69.58
2023-03-17T03:27:34.812Z,69.80
2023-03-17T03:28:35.090Z,69.97
2023-03-17T03:29:34.900Z,70.04
2023-03-17T03:30:36.418Z,70.11
2023-03-17T03:31:34.911Z,70.29
2023-03-17T03:32:35.345Z,70.52
2023-03-17T03:33:35.368Z,70.58
2023-03-17T03:34:35.044Z,70.65
2023-03-17T03:35:35.505Z,70.70
2023-03-17T03:36:35.173Z,70.74
2023-03-17T03:37:34.730Z,70.88
2023-03-17T03:38:35.201Z,70.84
2023-03-17T03:39:34.898Z,70.94
2023-03-17T03:40:35.376Z,70.86
2023-03-17T03:41:34.579Z,71.07
2023-03-17T03:42:34.782Z,71.26
2023-03-17T03:43:37.443Z,71.27
2023-03-17T03:44:34.708Z,71.41
2023-03-17T03:45:35.635Z,71.54
2023-03-17T03:46:35.141Z,71.48
2023-03-17T03:47:34.760Z,71.52
2023-03-17T03:48:35.195Z,71.64
2023-03-17T03:49:34.610Z,71.70
2023-03-17T03:50:35.461Z,71.69
2023-03-17T03:51:35.088Z,71.65
2023-03-17T03:52:35.208Z,71.68
2023-03-17T03:53:34.609Z,71.82
2023-03-17T03:54:35.020Z,71.79
2023-03-17T03:55:34.781Z,71.80
2023-03-17T03:56:35.293Z,71.94
2023-03-17T03:57:34.353Z,71.91
2023-03-17T03:58:34.521Z,71.89
2023-03-17T03:59:34.897Z,71.96
2023-03-17T04:00:36.777Z,71.98
2023-03-17T04:01:35.731Z,72.06
2023-03-17T04:02:36.026Z,72.08
2023-03-17T04:03:34.444Z,72.06
2023-03-17T04:04:34.930Z,72.20
2023-03-17T04:05:34.550Z,72.40
2023-03-17T04:06:35.411Z,72.37
2023-03-17T04:07:35.036Z,72.44
2023-03-17T04:08:34.822Z,72.57
2023-03-17T04:09:35.226Z,72.60
2023-03-17T04:10:35.158Z,72.62
2023-03-17T04:11:34.947Z,72.56
2023-03-17T04:13:35.384Z,72.75
2023-03-17T04:14:34.808Z,72.86
2023-03-17T04:15:35.579Z,72.96
2023-03-17T04:16:35.712Z,72.92
2023-03-17T04:17:35.541Z,72.81
2023-03-17T04:18:35.074Z,72.71
2023-03-17T04:19:34.324Z,72.71
2023-03-17T04:20:34.756Z,72.68
2023-03-17T04:21:35.716Z,72.70
2023-03-17T04:22:34.932Z,72.66
2023-03-17T04:23:35.310Z,72.57
2023-03-17T04:24:34.957Z,72.57
2023-03-17T04:25:35.343Z,72.64
2023-03-17T04:26:35.304Z,72.71
2023-03-17T04:27:35.216Z,72.72
2023-03-17T04:28:34.600Z,72.79
2023-03-17T04:29:34.408Z,72.77
2023-03-17T04:30:35.452Z,72.76
2023-03-17T04:31:34.647Z,72.68
2023-03-17T04:32:34.972Z,72.79
2023-03-17T04:33:34.972Z,72.81
2023-03-17T04:34:35.184Z,72.99
2023-03-17T04:35:35.386Z,73.01
2023-03-17T04:36:35.135Z,72.97
2023-03-17T04:37:34.843Z,72.91
2023-03-17T04:38:35.462Z,72.90
2023-03-17T04:39:34.919Z,72.97
2023-03-17T04:40:35.268Z,73.02
2023-03-17T04:41:34.812Z,73.06
2023-03-17T04:42:35.149Z,72.94
2023-03-17T04:43:34.819Z,71.87
2023-03-17T04:44:35.246Z,71.44
2023-03-17T04:45:35.140Z,71.21
2023-03-17T04:46:35.529Z,71.45
2023-03-17T04:47:34.856Z,71.29
2023-03-17T04:48:35.202Z,70.91
2023-03-17T04:49:34.530Z,70.58
2023-03-17T04:50:35.476Z,69.62
2023-03-17T04:51:35.328Z,68.80
2023-03-17T04:52:34.590Z,68.36
2023-03-17T04:53:35.370Z,68.05
2023-03-17T04:54:34.723Z,67.76
2023-03-17T04:55:35.846Z,67.49
2023-03-17T04:56:35.379Z,67.01
2023-03-17T04:57:34.798Z,66.54
2023-03-17T04:58:44.208Z,66.49
2023-03-17T04:59:35.168Z,66.43
2023-03-17T05:00:36.173Z,66.23
2023-03-17T05:01:40.684Z,66.05
2023-03-17T05:02:35.572Z,66.04
2023-03-17T05:03:40.827Z,65.97
2023-03-17T05:04:45.287Z,65.80
2023-03-17T05:05:35.167Z,65.73
2023-03-17T05:06:35.059Z,65.68
2023-03-17T05:07:35.302Z,65.52
2023-03-17T05:08:35.395Z,65.45
2023-03-17T05:09:35.257Z,65.60
2023-03-17T05:10:34.937Z,65.68
2023-03-17T05:11:35.082Z,65.79
2023-03-17T05:12:34.978Z,65.96
2023-03-17T05:13:34.301Z,65.91
2023-03-17T05:14:35.010Z,65.94
2023-03-17T05:15:35.201Z,65.96
2023-03-17T05:16:35.119Z,65.91
2023-03-17T05:17:35.279Z,65.87
2023-03-17T05:18:34.717Z,65.68
2023-03-17T05:19:34.924Z,65.43
2023-03-17T05:20:35.685Z,65.23
2023-03-17T05:21:35.407Z,65.14
2023-03-17T05:22:35.528Z,65.02
2023-03-17T05:23:35.120Z,64.94
2023-03-17T05:24:34.580Z,64.89
2023-03-17T05:25:35.879Z,64.93
2023-03-17T05:26:35.828Z,64.81
2023-03-17T05:27:35.578Z,64.79
2023-03-17T05:28:35.230Z,64.72
2023-03-17T05:29:34.878Z,64.73
2023-03-17T05:30:35.943Z,64.80
2023-03-17T05:31:35.577Z,64.82
2023-03-17T05:32:35.013Z,64.83
2023-03-17T05:33:35.206Z,64.61
2023-03-17T05:34:35.030Z,64.54
2023-03-17T05:35:40.857Z,64.57
2023-03-17T05:36:35.599Z,64.68
2023-03-17T05:37:40.374Z,64.74
2023-03-17T05:38:34.892Z,64.86
2023-03-17T05:39:35.653Z,64.97
2023-03-17T05:40:37.453Z,64.89
2023-03-17T05:41:34.827Z,64.97
2023-03-17T05:42:35.299Z,64.89
2023-03-17T05:43:35.249Z,64.77
2023-03-17T05:44:35.288Z,64.96
2023-03-17T05:45:35.255Z,64.98
2023-03-17T05:46:34.906Z,65.02
2023-03-17T05:47:35.557Z,64.95
2023-03-17T05:48:35.283Z,64.85
2023-03-17T05:49:35.465Z,65.34
2023-03-17T05:50:35.143Z,65.11
2023-03-17T05:51:36.896Z,65.19
2023-03-17T05:52:35.704Z,65.36
2023-03-17T05:53:35.306Z,65.49
2023-03-17T05:54:35.048Z,65.69
2023-03-17T05:55:35.511Z,65.76
2023-03-17T05:56:35.424Z,65.91
2023-03-17T05:57:34.768Z,66.07
2023-03-17T05:58:35.465Z,66.20
2023-03-17T05:59:35.022Z,66.55
2023-03-17T06:00:36.198Z,66.56
2023-03-17T06:01:35.370Z,66.47
2023-03-17T06:02:35.216Z,66.47
2023-03-17T06:03:34.824Z,66.33
2023-03-17T06:04:35.353Z,66.13
2023-03-17T06:05:35.849Z,66.41
2023-03-17T06:06:35.118Z,66.16
2023-03-17T06:07:44.897Z,65.77
2023-03-17T06:08:35.021Z,65.58
2023-03-17T06:09:35.418Z,65.38
2023-03-17T06:10:35.799Z,65.16
2023-03-17T06:11:36.261Z,65.06
2023-03-17T06:12:35.739Z,65.15
2023-03-17T06:13:35.261Z,65.15
2023-03-17T06:14:34.740Z,64.97
2023-03-17T06:15:35.757Z,64.78
2023-03-17T06:16:35.720Z,64.58
2023-03-17T06:17:35.400Z,64.50
2023-03-17T06:18:34.987Z,64.41
2023-03-17T06:19:34.861Z,64.48
2023-03-17T06:20:35.209Z,64.43
2023-03-17T06:21:35.051Z,64.48
2023-03-17T06:22:35.244Z,64.30
2023-03-17T06:23:35.055Z,64.06
2023-03-17T06:24:35.428Z,63.90
2023-03-17T06:25:35.654Z,63.82
2023-03-17T06:26:35.333Z,63.73
2023-03-17T06:27:35.653Z,63.66
2023-03-17T06:28:35.065Z,63.84
2023-03-17T06:29:35.164Z,63.84
2023-03-17T06:30:35.212Z,63.83
2023-03-17T06:31:34.944Z,63.74
2023-03-17T06:32:34.766Z,63.83
2023-03-17T06:33:36.816Z,64.08
2023-03-17T06:34:36.382Z,63.98
2023-03-17T06:35:36.793Z,63.88
2023-03-17T06:36:38.497Z,63.71
2023-03-17T06:37:35.546Z,63.73
2023-03-17T06:38:35.291Z,63.59
2023-03-17T06:39:35.149Z,63.5
2023-03-17T06:40:35.431Z,63.47
2023-03-17T06:41:35.467Z,63.36
2023-03-17T06:42:35.550Z,63.42
2023-03-17T06:43:35.394Z,63.29
2023-03-17T06:44:35.108Z,63.27
2023-03-17T06:45:35.228Z,63.24
2023-03-17T06:46:35.133Z,63.25
2023-03-17T06:47:34.651Z,63.20
2023-03-17T06:48:35.644Z,63.13
2023-03-17T06:49:35.608Z,63.34
2023-03-17T06:50:35.970Z,63.58
2023-03-17T06:51:35.898Z,64.11
2023-03-17T06:52:36.482Z,64.47
2023-03-17T06:53:35.529Z,65.13
2023-03-17T06:54:36.395Z,64.88
2023-03-17T06:55:36.768Z,65.51
2023-03-17T06:56:44.444Z,66.35
2023-03-17T06:57:37.399Z,66.98
2023-03-17T06:58:35.586Z,67.66
2023-03-17T06:59:36.144Z,67.20
2023-03-17T07:00:36.893Z,66.69
2023-03-17T07:01:36.578Z,66.52
2023-03-17T07:02:35.808Z,66.15
2023-03-17T07:03:38.200Z,66.04
2023-03-17T07:04:35.849Z,65.68
2023-03-17T07:05:37.764Z,65.28
2023-03-17T07:06:36.021Z,65.08
2023-03-17T07:07:35.568Z,65.29
2023-03-17T07:08:35.997Z,64.83
2023-03-17T07:09:35.086Z,64.70
2023-03-17T07:10:35.286Z,64.62
2023-03-17T07:11:35.602Z,64.37
2023-03-17T07:12:35.888Z,63.61
2023-03-17T07:13:35.901Z,63.02
2023-03-17T07:14:36.337Z,62.77
2023-03-17T07:15:36.793Z,62.56
2023-03-17T07:16:36.052Z,62.25
2023-03-17T07:17:35.462Z,61.99
2023-03-17T07:18:35.978Z,61.98
2023-03-17T07:19:35.231Z,62.09
2023-03-17T07:20:40.348Z,62.20
2023-03-17T07:21:35.281Z,62.23
2023-03-17T07:22:35.437Z,62.18
2023-03-17T07:23:35.327Z,62.18
2023-03-17T07:24:35.302Z,61.95
2023-03-17T07:25:35.715Z,61.78
2023-03-17T07:26:35.258Z,61.90
2023-03-17T07:27:36.566Z,62.11
2023-03-17T07:28:35.259Z,62.05
2023-03-17T07:29:35.704Z,62.09
2023-03-17T07:30:41.188Z,62.08
2023-03-17T07:31:35.950Z,62.08
2023-03-17T07:32:35.390Z,62.13
2023-03-17T07:33:35.480Z,62.06
2023-03-17T07:34:43.978Z,62.09
2023-03-17T07:35:38.269Z,61.97
2023-03-17T07:36:43.866Z,61.78
2023-03-17T07:37:36.300Z,61.64
2023-03-17T07:38:35.404Z,61.65
2023-03-17T07:39:35.748Z,61.68
2023-03-17T07:40:36.176Z,61.51
2023-03-17T07:41:35.488Z,61.51
2023-03-17T07:42:36.112Z,61.64
2023-03-17T07:43:35.266Z,61.57
2023-03-17T07:44:36.144Z,61.42
2023-03-17T07:45:36.547Z,61.35
2023-03-17T07:46:35.561Z,61.66
2023-03-17T07:47:35.779Z,61.68
2023-03-17T07:48:36.517Z,61.66
2023-03-17T07:49:54.180Z,61.56
2023-03-17T07:50:50.090Z,61.52
2023-03-17T07:51:35.591Z,61.53
2023-03-17T07:52:50.019Z,61.36
2023-03-17T07:53:35.118Z,61.32
2023-03-17T07:54:35.415Z,61.41
2023-03-17T07:55:35.551Z,61.54
2023-03-17T07:56:41.439Z,61.56
2023-03-17T07:57:36.222Z,61.56
2023-03-17T07:58:40.849Z,61.52
2023-03-17T07:59:36.663Z,61.38
2023-03-17T08:00:52.702Z,61.32
2023-03-17T08:01:36.894Z,61.12
2023-03-17T08:02:36.111Z,61.03
2023-03-17T08:03:35.767Z,61.10
2023-03-17T08:04:35.966Z,61.08
2023-03-17T08:05:36.470Z,60.96
2023-03-17T08:06:43.578Z,60.97
2023-03-17T08:07:36.176Z,61.06
2023-03-17T08:08:35.244Z,61.09
2023-03-17T08:09:36.149Z,61.14
2023-03-17T08:10:59.131Z,61.39
2023-03-17T08:11:35.916Z,61.38
2023-03-17T08:12:36.762Z,61.18
2023-03-17T08:13:36.286Z,61.02
2023-03-17T08:14:35.476Z,60.93
2023-03-17T08:15:36.532Z,61.08
2023-03-17T08:17:36.138Z,61.29
2023-03-17T08:18:36.101Z,61.28
2023-03-17T08:19:35.615Z,61.12
2023-03-17T08:20:36.164Z,61.04
2023-03-17T08:21:36.115Z,61.06
2023-03-17T08:22:36.101Z,61.16
2023-03-17T08:23:35.402Z,61.18
2023-03-17T08:24:36.373Z,61.25
2023-03-17T08:25:35.642Z,61.31
2023-03-17T08:26:35.965Z,61.15
2023-03-17T08:27:35.911Z,61.03
2023-03-17T08:28:36.004Z,60.87
2023-03-17T08:29:35.967Z,60.89
2023-03-17T08:30:36.677Z,61.06
2023-03-17T08:31:36.556Z,60.69
2023-03-17T08:32:35.953Z,60.63
2023-03-17T08:33:35.598Z,60.66
2023-03-17T08:34:36.380Z,60.50
2023-03-17T08:35:36.336Z,60.65
2023-03-17T08:36:35.589Z,60.67
2023-03-17T08:37:35.924Z,60.52
2023-03-17T08:38:36.036Z,60.17
2023-03-17T08:39:35.363Z,60.29
2023-03-17T08:40:36.165Z,60.44
2023-03-17T08:41:35.894Z,60.5
2023-03-17T08:42:35.195Z,60.24
2023-03-17T08:43:35.756Z,59.98
2023-03-17T08:44:36.211Z,59.85
2023-03-17T08:45:36.155Z,59.87
2023-03-17T08:46:35.135Z,60.04
2023-03-17T08:47:35.737Z,60.83
2023-03-17T08:48:36.117Z,61.28
2023-03-17T08:49:35.810Z,61.48
2023-03-17T08:50:36.637Z,61.95
2023-03-17T08:51:38.176Z,61.97
2023-03-17T08:52:37.117Z,62.66
2023-03-17T08:53:36.410Z,62.86
2023-03-17T08:54:36.222Z,62.91
2023-03-17T08:55:36.041Z,62.56
2023-03-17T08:56:35.976Z,62.22
2023-03-17T08:57:36.917Z,62.45
2023-03-17T08:58:37.376Z,61.70
2023-03-17T08:59:36.462Z,61.90
2023-03-17T09:00:37.687Z,62.29
2023-03-17T09:01:36.399Z,62.06
2023-03-17T09:02:46.554Z,61.86
2023-03-17T09:03:35.919Z,60.75
2023-03-17T09:04:37.766Z,60.86
2023-03-17T09:05:38.291Z,61.31
2023-03-17T09:06:36.487Z,61.43
2023-03-17T09:07:35.755Z,60.90
2023-03-17T09:08:35.863Z,60.77
2023-03-17T09:09:36.275Z,61.04
2023-03-17T09:10:36.142Z,60.64
2023-03-17T09:11:36.040Z,61.09
2023-03-17T09:12:35.982Z,60.86
2023-03-17T09:13:35.796Z,61.00
2023-03-17T09:14:43.339Z,60.77
2023-03-17T09:15:36.691Z,60.36
2023-03-17T09:16:36.022Z,60.11
2023-03-17T09:17:36.737Z,59.18
2023-03-17T09:18:36.643Z,58.74
2023-03-17T09:19:37.050Z,58.54
2023-03-17T09:20:36.816Z,58.68
2023-03-17T09:21:36.418Z,59.00
2023-03-17T09:22:36.026Z,59.33
2023-03-17T09:23:35.485Z,59.41
2023-03-17T09:24:35.641Z,59.16
2023-03-17T09:25:36.235Z,59.13
2023-03-17T09:26:35.835Z,58.36
2023-03-17T09:27:35.871Z,57.99
2023-03-17T09:28:36.337Z,58.17
2023-03-17T09:29:36.048Z,58.04
2023-03-17T09:30:36.025Z,57.88
2023-03-17T09:31:35.930Z,57.97
2023-03-17T09:32:37.290Z,57.93
2023-03-17T09:33:36.285Z,58.09
2023-03-17T09:34:35.631Z,57.96
2023-03-17T09:35:36.973Z,57.81
2023-03-17T09:36:36.375Z,57.79
2023-03-17T09:37:36.507Z,57.99
2023-03-17T09:38:36.334Z,58.31
2023-03-17T09:39:36.328Z,58.41
2023-03-17T09:40:36.844Z,58.26
2023-03-17T09:41:36.582Z,58.14
2023-03-17T09:42:36.789Z,58.34
2023-03-17T09:43:36.559Z,58.61
2023-03-17T09:44:35.940Z,58.41
2023-03-17T09:45:37.201Z,58.06
2023-03-17T09:46:37.010Z,58.13
2023-03-17T09:47:36.926Z,58.15
2023-03-17T09:48:36.712Z,58.11
2023-03-17T09:49:36.130Z,58.36
2023-03-17T09:50:38.599Z,58.35
2023-03-17T09:51:36.584Z,58.41
2023-03-17T09:52:36.026Z,58.48
2023-03-17T09:53:35.957Z,58.23
2023-03-17T09:54:36.262Z,58.15
2023-03-17T09:55:35.830Z,58.58
2023-03-17T09:56:37.326Z,59.03
2023-03-17T09:57:40.945Z,59.59
2023-03-17T09:58:37.060Z,60.08
2023-03-17T09:59:44.031Z,60.29
2023-03-17T10:00:37.400Z,60.52
2023-03-17T10:01:38.052Z,60.72
2023-03-17T10:02:37.021Z,60.02
2023-03-17T10:03:37.069Z,60.06
2023-03-17T10:04:35.846Z,59.45
2023-03-17T10:05:36.525Z,58.99
2023-03-17T10:06:36.909Z,59.34
2023-03-17T10:07:36.364Z,59.38
2023-03-17T10:08:46.185Z,59.46
2023-03-17T10:09:40.303Z,59.37
2023-03-17T10:10:36.812Z,59.36
2023-03-17T10:11:37.403Z,59.39
2023-03-17T10:12:37.215Z,59.25
2023-03-17T10:13:36.340Z,58.45
2023-03-17T10:14:36.841Z,58.15
2023-03-17T10:15:37.087Z,58.45
2023-03-17T10:16:38.661Z,58.43
2023-03-17T10:17:37.974Z,58.52
2023-03-17T10:18:38.047Z,58.59
2023-03-17T10:19:37.672Z,58.42
2023-03-17T10:20:37.359Z,58.54
2023-03-17T10:21:41.437Z,58.43
2023-03-17T10:22:36.812Z,58.67
2023-03-17T10:23:37.467Z,58.62
2023-03-17T10:24:37.787Z,58.41
2023-03-17T10:25:37.243Z,58.68
2023-03-17T10:26:36.968Z,58.77
2023-03-17T10:27:36.812Z,58.65
2023-03-17T10:28:36.122Z,58.41
2023-03-17T10:29:36.831Z,58.46
2023-03-17T10:30:37.761Z,58.13
2023-03-17T10:31:37.628Z,57.95
2023-03-17T10:32:37.507Z,58.13
2023-03-17T10:33:37.520Z,58.43
2023-03-17T10:34:38.135Z,58.29
2023-03-17T10:35:36.642Z,58.34
2023-03-17T10:36:37.503Z,58.24
2023-03-17T10:37:36.804Z,58.45
2023-03-17T10:38:37.021Z,58.59
2023-03-17T10:39:44.879Z,58.78
2023-03-17T10:40:37.533Z,58.27
2023-03-17T10:41:37.031Z,57.98
2023-03-17T10:42:36.837Z,57.81
2023-03-17T10:43:37.669Z,57.65
2023-03-17T10:44:37.039Z,57.58
2023-03-17T10:45:39.095Z,57.63
2023-03-17T10:46:37.191Z,57.50
2023-03-17T10:47:36.749Z,57.45
2023-03-17T10:48:37.342Z,57.37
2023-03-17T10:49:37.225Z,57.15
2023-03-17T10:50:37.092Z,57.02
2023-03-17T10:51:36.614Z,56.68
2023-03-17T10:52:36.823Z,56.68
2023-03-17T10:53:37.901Z,56.78
2023-03-17T10:54:36.969Z,56.79
2023-03-17T10:55:36.609Z,56.65
2023-03-17T10:56:36.591Z,56.52
2023-03-17T10:57:36.749Z,56.29
2023-03-17T10:58:36.217Z,56.06
2023-03-17T10:59:36.164Z,55.93
2023-03-17T11:00:38.598Z,56.06
2023-03-17T11:01:38.522Z,56.20
2023-03-17T11:02:37.813Z,56.19
2023-03-17T11:03:37.375Z,56.30
2023-03-17T11:04:36.753Z,56.24
2023-03-17T11:05:39.069Z,56.02
2023-03-17T11:06:36.175Z,55.83
2023-03-17T11:07:36.114Z,55.96
2023-03-17T11:08:36.553Z,56.01
2023-03-17T11:09:37.156Z,56.03
2023-03-17T11:10:36.343Z,56.12
2023-03-17T11:11:36.469Z,56.18
2023-03-17T11:12:36.588Z,56.24
2023-03-17T11:13:36.774Z,56.72
2023-03-17T11:14:36.642Z,56.77
2023-03-17T11:15:37.144Z,56.73
2023-03-17T11:16:36.848Z,56.66
2023-03-17T11:17:36.752Z,56.34
2023-03-17T11:18:36.838Z,55.95
2023-03-17T11:19:36.706Z,55.89
2023-03-17T11:20:37.273Z,56.04
2023-03-17T11:21:36.625Z,56.06
2023-03-17T11:22:36.538Z,56.22
2023-03-17T11:23:36.379Z,56.31
2023-03-17T11:24:36.074Z,56.20
2023-03-17T11:25:36.535Z,55.98
2023-03-17T11:26:36.712Z,55.93
2023-03-17T11:27:36.612Z,56.21
2023-03-17T11:28:36.795Z,56.11
2023-03-17T11:29:36.643Z,55.89
2023-03-17T11:30:36.873Z,55.83
2023-03-17T11:31:36.806Z,55.70
2023-03-17T11:32:37.136Z,55.80
2023-03-17T11:34:35.566Z,55.29
2023-03-17T11:35:36.007Z,55.43
2023-03-17T11:36:36.463Z,55.39
2023-03-17T11:37:37.216Z,55.21
2023-03-17T11:38:36.609Z,55.23
2023-03-17T11:39:36.023Z,55.15
2023-03-17T11:40:36.784Z,55.05
2023-03-17T11:41:36.772Z,54.79
2023-03-17T11:42:37.145Z,54.90
2023-03-17T11:43:36.524Z,54.87
2023-03-17T11:44:36.997Z,54.73
2023-03-17T11:45:37.051Z,54.60
2023-03-17T11:46:36.394Z,54.65
2023-03-17T11:47:36.068Z,54.73
2023-03-17T11:48:36.763Z,55.13
2023-03-17T11:49:36.877Z,55.36
2023-03-17T11:50:36.860Z,55.74
2023-03-17T11:51:37.339Z,55.66
2023-03-17T11:52:35.764Z,55.78
2023-03-17T11:53:36.709Z,56.07
2023-03-17T11:54:35.905Z,56.20
2023-03-17T11:55:38.063Z,56.13
2023-03-17T11:56:36.890Z,55.86
2023-03-17T11:57:37.812Z,55.78
2023-03-17T11:58:36.993Z,55.48
2023-03-17T11:59:37.144Z,55.08
2023-03-17T12:00:37.686Z,54.56
2023-03-17T12:01:37.450Z,54.15
2023-03-17T12:02:36.545Z,54.16
2023-03-17T12:03:36.782Z,54.31
2023-03-17T12:04:37.316Z,54.56
2023-03-17T12:05:38.347Z,54.67
2023-03-17T12:06:37.647Z,54.72
2023-03-17T12:07:37.051Z,54.62
2023-03-17T12:08:35.630Z,54.26
2023-03-17T12:09:36.080Z,54.20
2023-03-17T12:10:35.515Z,54.25
2023-03-17T12:11:36.742Z,54.26
2023-03-17T12:12:41.721Z,54.40
2023-03-17T12:13:36.943Z,55.15
2023-03-17T12:14:41.125Z,55.40
2023-03-17T12:15:36.367Z,55.33
2023-03-17T12:16:36.607Z,55.37
2023-03-17T12:17:40.556Z,55.11
2023-03-17T12:18:36.873Z,55.36
2023-03-17T12:19:37.412Z,55.29
2023-03-17T12:20:37.471Z,55.24
2023-03-17T12:21:37.052Z,55.24
2023-03-17T12:22:36.457Z,55.40
2023-03-17T12:23:36.619Z,55.47
2023-03-17T12:24:36.766Z,55.52
2023-03-17T12:25:37.197Z,55.41
2023-03-17T12:26:44.219Z,55.40
2023-03-17T12:27:36.534Z,55.55
2023-03-17T12:28:36.885Z,55.36
2023-03-17T12:29:36.991Z,55.54
2023-03-17T12:30:36.566Z,55.29
2023-03-17T12:31:38.652Z,54.75
2023-03-17T12:32:37.262Z,54.49
2023-03-17T12:33:36.950Z,54.23
2023-03-17T12:34:37.444Z,54.43
2023-03-17T12:35:38.149Z,53.92
2023-03-17T12:36:37.610Z,53.98
2023-03-17T12:37:36.662Z,54.05
2023-03-17T12:38:37.342Z,53.97
2023-03-17T12:39:37.194Z,53.97
2023-03-17T12:40:39.273Z,53.86
2023-03-17T12:41:36.632Z,53.63
2023-03-17T12:42:36.123Z,53.77
2023-03-17T12:43:36.404Z,53.44
2023-03-17T12:44:41.103Z,53.43
2023-03-17T12:45:36.761Z,53.42
2023-03-17T12:46:42.029Z,53.60
2023-03-17T12:47:35.968Z,53.79
2023-03-17T12:48:37.590Z,53.13
2023-03-17T12:49:36.243Z,52.94
2023-03-17T12:50:55.335Z,53.04
2023-03-17T12:51:38.501Z,53.54
2023-03-17T12:52:55.387Z,53.59
2023-03-17T12:53:35.299Z,53.63
2023-03-17T12:54:42.025Z,53.70
2023-03-17T12:55:35.827Z,53.66
2023-03-17T12:56:36.483Z,53.54